createdAt,value
2018-01-07T00:02:09.062Z,95.29
2018-01-07T00:04:38.201Z,95.24
2018-01-07T00:07:07.246Z,95.55
2018-01-07T00:09:36.308Z,95.46
2018-01-07T00:12:04.762Z,95.97
2018-01-07T00:14:33.510Z,96.14
2018-01-07T00:17:02.644Z,96.48
2018-01-07T00:19:31.118Z,97.03
2018-01-07T00:22:00.158Z,96.96
2018-01-07T00:24:29.308Z,96.69
2018-01-07T00:26:58.326Z,96.12
2018-01-07T00:29:26.799Z,95.65
2018-01-07T00:31:55.718Z,95.65
2018-01-07T00:34:24.222Z,95.73
2018-01-07T00:36:53.081Z,95.70
2018-01-07T00:39:21.438Z,96.32
2018-01-07T00:41:50.488Z,97.04
2018-01-07T00:44:19.308Z,97.09
2018-01-07T00:46:47.843Z,96.85
2018-01-07T00:49:16.584Z,96.57
2018-01-07T00:51:46.621Z,96.26
2018-01-07T00:54:15.170Z,96.00
2018-01-07T00:56:44.268Z,96.57
2018-01-07T00:59:12.666Z,96.75
2018-01-07T01:01:41.636Z,96.73
2018-01-07T01:04:10.365Z,96.42
2018-01-07T01:06:38.921Z,96.29
2018-01-07T01:09:07.326Z,96.23
2018-01-07T01:11:36.513Z,96.06
2018-01-07T01:14:05.399Z,96.16
2018-01-07T01:16:33.889Z,96.51
2018-01-07T01:19:02.691Z,96.50
2018-01-07T01:21:31.099Z,96.91
2018-01-07T01:24:00.344Z,97.33
2018-01-07T01:26:29.300Z,97.07
2018-01-07T01:28:57.796Z,96.82
2018-01-07T01:31:26.671Z,96.34
2018-01-07T01:33:55.868Z,96.23
2018-01-07T01:36:24.788Z,95.94
2018-01-07T01:38:53.240Z,95.68
2018-01-07T01:41:22.180Z,95.54
2018-01-07T01:43:50.488Z,95.76
2018-01-07T01:46:19.580Z,96.10
2018-01-07T01:48:47.892Z,96.19
2018-01-07T01:51:17.015Z,96.12
2018-01-07T01:53:46.215Z,96.01
2018-01-07T01:56:15.156Z,95.81
2018-01-07T01:58:44.257Z,95.73
2018-01-07T02:01:13.372Z,95.61
2018-01-07T02:03:42.462Z,95.49
2018-01-07T02:06:11.476Z,95.52
2018-01-07T02:08:39.928Z,95.58
2018-01-07T02:11:08.886Z,95.75
2018-01-07T02:13:38.111Z,95.80
2018-01-07T02:16:07.500Z,95.87
2018-01-07T02:18:35.824Z,95.78
2018-01-07T02:21:04.997Z,95.70
2018-01-07T02:23:34.955Z,96.05
2018-01-07T02:26:03.591Z,96.58
2018-01-07T02:28:32.527Z,96.84
2018-01-07T02:31:00.897Z,97.01
2018-01-07T02:33:30.734Z,97.24
2018-01-07T02:36:00.038Z,97.45
2018-01-07T02:38:29.085Z,97.60
2018-01-07T02:40:58.011Z,97.66
2018-01-07T02:43:27.321Z,97.74
2018-01-07T02:45:56.065Z,97.72
2018-01-07T02:48:24.472Z,97.71
2018-01-07T02:50:52.917Z,97.71
2018-01-07T02:53:21.891Z,97.69
2018-01-07T02:55:50.210Z,97.71
2018-01-07T02:58:20.212Z,97.84
2018-01-07T03:00:48.613Z,97.94
2018-01-07T03:03:16.993Z,98.00
2018-01-07T03:05:45.715Z,97.96
2018-01-07T03:08:14.887Z,97.92
2018-01-07T03:10:43.201Z,97.83
2018-01-07T03:13:11.520Z,97.76
2018-01-07T03:15:40.913Z,97.75
2018-01-07T03:18:10.360Z,97.72
2018-01-07T03:20:38.785Z,97.81
2018-01-07T03:23:07.240Z,97.75
2018-01-07T03:25:36.252Z,97.78
2018-01-07T03:28:05.912Z,97.80
2018-01-07T03:30:35.043Z,97.71
2018-01-07T03:33:03.356Z,97.50
2018-01-07T03:35:32.540Z,97.50
2018-01-07T03:38:00.986Z,97.65
2018-01-07T03:40:30.024Z,97.72
2018-01-07T03:42:58.907Z,97.80
2018-01-07T03:45:28.802Z,97.72
2018-01-07T03:47:57.799Z,97.65
2018-01-07T03:50:26.115Z,97.47
2018-01-07T03:52:54.568Z,97.27
2018-01-07T03:55:23.552Z,97.14
2018-01-07T03:57:51.856Z,97.01
2018-01-07T04:00:20.916Z,96.85
2018-01-07T04:02:49.227Z,96.69
2018-01-07T04:05:17.587Z,96.60
2018-01-07T04:07:46.695Z,96.65
2018-01-07T04:10:15.503Z,96.68
2018-01-07T04:12:44.587Z,96.69
2018-01-07T04:15:13.688Z,96.63
2018-01-07T04:17:42.912Z,96.53
2018-01-07T04:20:12.096Z,96.49
2018-01-07T04:22:40.445Z,96.49
2018-01-07T04:25:08.759Z,96.52
2018-01-07T04:27:37.815Z,96.50
2018-01-07T04:30:06.664Z,96.46
2018-01-07T04:32:35.142Z,96.46
2018-01-07T04:35:04.160Z,96.49
2018-01-07T04:37:32.614Z,96.50
2018-01-07T04:40:00.956Z,96.57
2018-01-07T04:42:29.772Z,96.69
2018-01-07T04:44:58.181Z,96.68
2018-01-07T04:47:27.135Z,96.68
2018-01-07T04:49:55.457Z,96.62
2018-01-07T04:52:24.577Z,96.55
2018-01-07T04:54:53.068Z,96.56
2018-01-07T04:57:21.891Z,96.54
2018-01-07T04:59:50.359Z,96.55
2018-01-07T05:02:19.320Z,96.46
2018-01-07T05:04:48.347Z,96.42
2018-01-07T05:07:16.820Z,96.44
2018-01-07T05:09:45.723Z,96.51
2018-01-07T05:12:14.028Z,96.31
2018-01-07T05:14:42.436Z,96.66
2018-01-07T05:17:11.423Z,96.73
2018-01-07T05:19:39.823Z,96.98
2018-01-07T05:22:08.823Z,97.03
2018-01-07T05:24:37.940Z,97.26
2018-01-07T05:27:06.987Z,97.40
2018-01-07T05:29:35.424Z,97.66
2018-01-07T05:32:04.296Z,98.00
2018-01-07T05:34:33.472Z,98.22
2018-01-07T05:37:01.828Z,98.22
2018-01-07T05:39:30.381Z,98.07
2018-01-07T05:41:59.073Z,98.01
2018-01-07T05:44:27.495Z,97.90
2018-01-07T05:46:56.416Z,97.79
2018-01-07T05:49:24.755Z,97.78
2018-01-07T05:51:53.187Z,97.70
2018-01-07T05:54:22.280Z,97.74
2018-01-07T05:56:51.206Z,97.64
2018-01-07T05:59:20.387Z,97.53
2018-01-07T06:01:49.359Z,97.39
2018-01-07T06:04:17.811Z,97.26
2018-01-07T06:06:47.346Z,97.17
2018-01-07T06:09:15.847Z,97.18
2018-01-07T06:11:44.741Z,97.04
2018-01-07T06:14:13.116Z,96.85
2018-01-07T06:16:41.426Z,96.97
2018-01-07T06:19:09.743Z,97.08
2018-01-07T06:21:38.103Z,97.32
2018-01-07T06:24:07.123Z,97.59
2018-01-07T06:26:35.461Z,98.03
2018-01-07T06:29:04.013Z,98.31
2018-01-07T06:31:32.764Z,98.34
2018-01-07T06:34:02.037Z,98.22
2018-01-07T06:36:30.504Z,98.09
2018-01-07T06:38:58.820Z,98.02
2018-01-07T06:41:27.563Z,98.03
2018-01-07T06:43:56.682Z,97.90
2018-01-07T06:46:25.000Z,97.92
2018-01-07T06:48:53.888Z,97.80
2018-01-07T06:51:22.290Z,98.06
2018-01-07T06:53:50.608Z,98.52
2018-01-07T06:56:19.632Z,98.73
2018-01-07T06:58:47.996Z,98.89
2018-01-07T07:01:16.531Z,99.10
2018-01-07T07:03:44.900Z,99.22
2018-01-07T07:06:13.628Z,99.28
2018-01-07T07:08:42.047Z,99.43
2018-01-07T07:11:10.932Z,99.47
2018-01-07T07:13:39.343Z,99.43
2018-01-07T07:16:07.663Z,99.39
2018-01-07T07:18:36.364Z,99.28
2018-01-07T07:23:45.492Z,99.07
2018-01-07T07:26:13.863Z,98.99
2018-01-07T07:28:42.850Z,98.83
2018-01-07T07:31:11.949Z,98.83
2018-01-07T07:33:41.016Z,98.82
2018-01-07T07:36:09.336Z,98.69
2018-01-07T07:38:38.216Z,98.50
2018-01-07T07:41:07.061Z,98.41
2018-01-07T07:43:35.384Z,98.30
2018-01-07T07:46:04.040Z,98.09
2018-01-07T07:48:32.347Z,98.05
2018-01-07T07:51:00.844Z,97.80
2018-01-07T07:53:29.704Z,97.73
2018-01-07T07:55:58.911Z,97.94
2018-01-07T07:58:28.019Z,97.96
2018-01-07T08:00:56.989Z,98.00
2018-01-07T08:03:25.300Z,98.04
2018-01-07T08:05:54.372Z,97.91
2018-01-07T08:08:24.431Z,98.14
2018-01-07T08:10:53.520Z,98.27
2018-01-07T08:13:22.469Z,98.38
2018-01-07T08:15:50.872Z,98.48
2018-01-07T08:18:19.655Z,98.39
2018-01-07T08:20:48.248Z,98.30
2018-01-07T08:23:17.215Z,98.34
2018-01-07T08:25:46.305Z,98.26
2018-01-07T08:28:14.620Z,98.40
2018-01-07T08:30:43.788Z,98.51
2018-01-07T08:33:12.103Z,98.50
2018-01-07T08:35:41.012Z,98.58
2018-01-07T08:38:10.308Z,98.60
2018-01-07T08:40:39.283Z,98.66
2018-01-07T08:43:08.130Z,98.60
2018-01-07T08:45:36.506Z,98.46
2018-01-07T08:48:04.854Z,98.17
2018-01-07T08:50:33.181Z,98.16
2018-01-07T08:53:01.552Z,97.99
2018-01-07T08:55:30.496Z,98.17
2018-01-07T08:57:58.813Z,97.85
2018-01-07T09:00:28.408Z,97.77
2018-01-07T09:02:56.809Z,97.62
2018-01-07T09:05:25.917Z,97.80
2018-01-07T09:07:55.173Z,97.93
2018-01-07T09:10:24.214Z,97.90
2018-01-07T09:12:53.213Z,97.95
2018-01-07T09:15:22.403Z,97.82
2018-01-07T09:17:51.337Z,98.05
2018-01-07T09:20:19.654Z,98.22
2018-01-07T09:22:48.036Z,98.22
2018-01-07T09:25:16.591Z,98.29
2018-01-07T09:27:45.252Z,98.24
2018-01-07T09:30:14.052Z,98.26
2018-01-07T09:32:42.556Z,98.17
2018-01-07T09:35:11.072Z,97.66
2018-01-07T09:37:44.973Z,97.31
2018-01-07T09:40:14.184Z,96.71
2018-01-07T09:42:43.181Z,96.40
2018-01-07T09:45:12.189Z,96.42
2018-01-07T09:47:41.344Z,96.16
2018-01-07T09:50:10.597Z,96.15
2018-01-07T09:52:39.685Z,96.00
2018-01-07T09:55:08.264Z,95.68
2018-01-07T09:57:38.372Z,95.12
2018-01-07T10:00:07.492Z,95.79
2018-01-07T10:02:36.052Z,96.18
2018-01-07T10:05:05.036Z,96.02
2018-01-07T10:07:34.241Z,95.60
2018-01-07T10:10:02.574Z,95.36
2018-01-07T10:12:31.297Z,95.24
2018-01-07T10:14:59.812Z,95.21
2018-01-07T10:17:28.128Z,95.66
2018-01-07T10:19:57.106Z,95.74
2018-01-07T10:22:26.392Z,95.40
2018-01-07T10:24:54.781Z,95.39
2018-01-07T10:27:26.172Z,95.37
2018-01-07T10:29:55.097Z,95.27
2018-01-07T10:32:23.446Z,94.87
2018-01-07T10:34:53.056Z,94.26
2018-01-07T10:37:24.068Z,94.70
2018-01-07T10:39:52.632Z,94.34
2018-01-07T10:42:20.940Z,94.41
2018-01-07T10:44:49.295Z,94.23
2018-01-07T10:47:18.196Z,94.16
2018-01-07T10:49:47.055Z,93.53
2018-01-07T10:52:16.088Z,93.52
2018-01-07T10:54:44.591Z,93.43
2018-01-07T10:57:13.092Z,93.39
2018-01-07T10:59:41.820Z,93.30
2018-01-07T11:02:16.008Z,92.84
2018-01-07T11:04:44.691Z,92.94
2018-01-07T11:07:13.188Z,92.33
2018-01-07T11:09:41.557Z,92.18
2018-01-07T11:12:10.728Z,91.63
2018-01-07T11:14:39.053Z,91.68
2018-01-07T11:17:07.443Z,91.76
2018-01-07T11:19:35.916Z,91.99
2018-01-07T11:22:04.525Z,91.67
2018-01-07T11:24:33.420Z,91.19
2018-01-07T11:27:02.674Z,91.23
2018-01-07T11:29:31.087Z,91.22
2018-01-07T11:32:00.126Z,91.62
2018-01-07T11:34:28.729Z,90.12
2018-01-07T11:36:57.031Z,89.88
2018-01-07T11:39:25.780Z,90.15
2018-01-07T11:41:54.851Z,90.41
2018-01-07T11:44:24.300Z,89.69
2018-01-07T11:46:52.672Z,89.41
2018-01-07T11:49:21.363Z,89.04
2018-01-07T11:51:49.848Z,89.72
2018-01-07T11:54:18.683Z,89.07
2018-01-07T11:56:47.213Z,88.47
2018-01-07T11:59:16.640Z,89.17
2018-01-07T12:01:46.814Z,88.78
2018-01-07T12:04:15.212Z,88.40
2018-01-07T12:06:44.100Z,88.74
2018-01-07T12:09:12.469Z,89.22
2018-01-07T12:11:41.309Z,88.93
2018-01-07T12:14:09.764Z,88.94
2018-01-07T12:16:38.233Z,89.18
2018-01-07T12:19:07.184Z,88.71
2018-01-07T12:21:36.300Z,89.31
2018-01-07T12:24:05.306Z,88.78
2018-01-07T12:26:33.615Z,88.24
2018-01-07T12:29:01.941Z,88.06
2018-01-07T12:31:31.068Z,88.18
2018-01-07T12:33:59.471Z,89.02
2018-01-07T12:36:29.324Z,88.15
2018-01-07T12:38:57.700Z,88.17
2018-01-07T12:41:26.825Z,87.84
2018-01-07T12:43:55.627Z,88.02
2018-01-07T12:46:23.999Z,87.85
2018-01-07T12:48:52.316Z,87.80
2018-01-07T12:51:20.636Z,87.02
2018-01-07T12:53:49.756Z,87.03
2018-01-07T12:56:18.678Z,87.19
2018-01-07T12:58:47.038Z,87.40
2018-01-07T13:01:15.497Z,87.63
2018-01-07T13:03:44.224Z,87.57
2018-01-07T13:06:12.564Z,86.77
2018-01-07T13:08:40.938Z,86.92
2018-01-07T13:11:09.931Z,86.53
2018-01-07T13:13:38.240Z,86.25
2018-01-07T13:16:06.676Z,86.06
2018-01-07T13:18:35.053Z,84.95
2018-01-07T13:21:03.950Z,84.70
2018-01-07T13:23:33.083Z,83.97
2018-01-07T13:26:01.393Z,83.62
2018-01-07T13:28:30.346Z,83.90
2018-01-07T13:30:59.500Z,83.42
2018-01-07T13:33:28.501Z,83.85
2018-01-07T13:35:57.830Z,83.62
2018-01-07T13:38:26.635Z,83.80
2018-01-07T13:40:54.939Z,83.14
2018-01-07T13:43:23.818Z,83.31
2018-01-07T13:45:52.397Z,82.13
2018-01-07T13:48:21.180Z,82.84
2018-01-07T13:50:49.896Z,83.21
2018-01-07T13:53:18.225Z,82.75
2018-01-07T13:55:46.528Z,82.65
2018-01-07T13:58:16.460Z,82.69
2018-01-07T14:00:45.301Z,83.42
2018-01-07T14:03:13.654Z,82.77
2018-01-07T14:05:42.712Z,83.04
2018-01-07T14:08:11.029Z,82.46
2018-01-07T14:10:39.919Z,82.51
2018-01-07T14:13:09.349Z,82.16
2018-01-07T14:15:38.445Z,82.54
2018-01-07T14:18:07.695Z,83.14
2018-01-07T14:20:36.545Z,82.41
2018-01-07T14:23:05.728Z,81.78
2018-01-07T14:25:34.790Z,82.97
2018-01-07T14:28:03.934Z,82.34
2018-01-07T14:30:33.034Z,82.50
2018-01-07T14:33:01.908Z,82.39
2018-01-07T14:35:30.387Z,82.65
2018-01-07T14:37:58.711Z,81.89
2018-01-07T14:40:27.569Z,82.16
2018-01-07T14:42:56.698Z,82.51
2018-01-07T14:45:25.089Z,82.79
2018-01-07T14:47:53.446Z,82.81
2018-01-07T14:50:22.391Z,83.16
2018-01-07T14:52:51.419Z,83.64
2018-01-07T14:55:20.555Z,83.17
2018-01-07T14:57:49.650Z,83.45
2018-01-07T15:00:18.636Z,83.40
2018-01-07T15:02:46.993Z,83.29
2018-01-07T15:05:15.627Z,83.13
2018-01-07T15:07:44.365Z,83.20
2018-01-07T15:10:13.404Z,83.86
2018-01-07T15:12:41.877Z,83.38
2018-01-07T15:15:10.639Z,84.00
2018-01-07T15:17:39.116Z,83.81
2018-01-07T15:20:07.540Z,83.87
2018-01-07T15:22:36.506Z,83.87
2018-01-07T15:25:05.600Z,83.92
2018-01-07T15:27:34.878Z,84.33
2018-01-07T15:30:03.697Z,83.94
2018-01-07T15:32:32.004Z,83.99
2018-01-07T15:35:01.310Z,83.74
2018-01-07T15:37:29.911Z,83.89
2018-01-07T15:39:59.003Z,84.63
2018-01-07T15:42:27.642Z,84.46
2018-01-07T15:44:56.086Z,84.08
2018-01-07T15:47:25.103Z,84.34
2018-01-07T15:49:53.542Z,84.25
2018-01-07T15:52:22.316Z,83.92
2018-01-07T15:54:50.680Z,83.91
2018-01-07T15:57:19.787Z,83.83
2018-01-07T15:59:48.149Z,83.77
2018-01-07T16:02:16.464Z,83.70
2018-01-07T16:04:45.473Z,84.20
2018-01-07T16:07:14.489Z,83.79
2018-01-07T16:09:42.858Z,83.93
2018-01-07T16:12:12.058Z,83.89
2018-01-07T16:14:40.372Z,83.98
2018-01-07T16:17:08.906Z,84.11
2018-01-07T16:19:38.371Z,84.09
2018-01-07T16:22:07.448Z,84.29
2018-01-07T16:24:36.077Z,84.85
2018-01-07T16:27:04.870Z,84.60
2018-01-07T16:29:33.878Z,84.69
2018-01-07T16:32:12.112Z,84.46
2018-01-07T16:34:42.263Z,83.68
2018-01-07T16:37:10.723Z,84.15
2018-01-07T16:39:40.097Z,84.00
2018-01-07T16:42:10.184Z,84.07
2018-01-07T16:44:38.702Z,82.94
2018-01-07T16:47:07.594Z,83.62
2018-01-07T16:49:36.071Z,83.80
2018-01-07T16:52:04.968Z,83.92
2018-01-07T16:54:34.598Z,83.66
2018-01-07T16:57:03.391Z,83.62
2018-01-07T16:59:33.705Z,83.63
2018-01-07T17:02:03.000Z,83.09
2018-01-07T17:04:31.499Z,83.94
2018-01-07T17:07:00.969Z,84.11
2018-01-07T17:09:29.668Z,84.06
2018-01-07T17:11:59.181Z,83.34
2018-01-07T17:14:27.871Z,84.03
2018-01-07T17:16:57.479Z,84.07
2018-01-07T17:19:26.188Z,83.55
2018-01-07T17:21:54.694Z,83.17
2018-01-07T17:24:23.098Z,83.40
2018-01-07T17:26:52.104Z,83.50
2018-01-07T17:29:20.466Z,83.12
2018-01-07T17:31:49.622Z,82.80
2018-01-07T17:34:18.533Z,83.18
2018-01-07T17:36:46.898Z,83.23
2018-01-07T17:39:15.355Z,83.04
2018-01-07T17:41:44.212Z,83.12
2018-01-07T17:44:13.309Z,82.17
2018-01-07T17:46:42.603Z,81.70
2018-01-07T17:49:11.639Z,81.15
2018-01-07T17:51:39.990Z,81.69
2018-01-07T17:56:49.500Z,81.69
2018-01-07T17:59:18.521Z,82.60
2018-01-07T18:01:46.884Z,81.60
2018-01-07T18:04:15.295Z,82.06
2018-01-07T18:06:44.227Z,81.96
2018-01-07T18:09:13.511Z,81.83
2018-01-07T18:11:42.547Z,81.54
2018-01-07T18:14:11.515Z,81.66
2018-01-07T18:16:40.639Z,81.80
2018-01-07T18:19:09.826Z,81.92
2018-01-07T18:21:38.951Z,82.04
2018-01-07T18:24:07.920Z,81.73
2018-01-07T18:26:36.998Z,81.98
2018-01-07T18:29:05.350Z,81.42
2018-01-07T18:31:34.326Z,81.92
2018-01-07T18:34:04.403Z,81.52
2018-01-07T18:36:32.955Z,81.85
2018-01-07T18:39:01.608Z,81.71
2018-01-07T18:41:30.871Z,82.15
2018-01-07T18:43:59.958Z,82.36
2018-01-07T18:46:28.931Z,82.43
2018-01-07T18:48:58.172Z,81.94
2018-01-07T18:51:27.090Z,82.49
2018-01-07T18:53:56.226Z,82.33
2018-01-07T18:56:25.322Z,82.22
2018-01-07T18:58:54.010Z,82.58
2018-01-07T19:01:22.662Z,82.25
2018-01-07T19:03:52.521Z,82.43
2018-01-07T19:06:20.914Z,81.89
2018-01-07T19:08:50.098Z,82.21
2018-01-07T19:11:19.212Z,82.21
2018-01-07T19:13:47.950Z,82.70
2018-01-07T19:16:17.296Z,82.87
2018-01-07T19:18:46.072Z,82.60
2018-01-07T19:21:14.434Z,82.89
2018-01-07T19:23:43.742Z,82.98
2018-01-07T19:26:12.185Z,82.77
2018-01-07T19:28:41.148Z,82.36
2018-01-07T19:31:10.172Z,82.36
2018-01-07T19:33:38.632Z,82.16
2018-01-07T19:36:07.706Z,82.55
2018-01-07T19:38:36.462Z,83.21
2018-01-07T19:41:05.704Z,83.96
2018-01-07T19:43:34.844Z,84.16
2018-01-07T19:46:03.583Z,84.28
2018-01-07T19:48:31.947Z,84.25
2018-01-07T19:51:00.396Z,84.45
2018-01-07T19:53:28.967Z,84.42
2018-01-07T19:55:57.432Z,83.98
2018-01-07T19:58:26.184Z,83.72
2018-01-07T20:00:54.628Z,83.47
2018-01-07T20:03:23.503Z,83.13
2018-01-07T20:05:52.669Z,83.35
2018-01-07T20:08:21.754Z,82.39
2018-01-07T20:10:50.884Z,82.29
2018-01-07T20:13:19.319Z,82.07
2018-01-07T20:15:47.679Z,82.41
2018-01-07T20:18:18.063Z,82.51
2018-01-07T20:20:47.237Z,82.16
2018-01-07T20:23:15.642Z,81.93
2018-01-07T20:25:44.539Z,81.75
2018-01-07T20:28:13.483Z,81.71
2018-01-07T20:30:42.770Z,81.80
2018-01-07T20:33:11.223Z,81.42
2018-01-07T20:35:40.158Z,81.06
2018-01-07T20:38:09.189Z,81.05
2018-01-07T20:40:41.715Z,81.19
2018-01-07T20:43:10.590Z,81.16
2018-01-07T20:45:39.051Z,80.96
2018-01-07T20:48:08.540Z,81.29
2018-01-07T20:50:37.075Z,81.30
2018-01-07T20:53:05.482Z,81.07
2018-01-07T20:55:34.498Z,81.35
2018-01-07T20:58:02.856Z,81.25
2018-01-07T21:00:31.282Z,81.46
2018-01-07T21:02:59.740Z,81.48
2018-01-07T21:05:28.487Z,81.46
2018-01-07T21:07:56.936Z,81.58
2018-01-07T21:10:26.633Z,81.40
2018-01-07T21:12:55.724Z,81.40
2018-01-07T21:15:24.259Z,81.56
2018-01-07T21:17:53.304Z,81.59
2018-01-07T21:20:21.673Z,81.66
2018-01-07T21:22:50.169Z,81.57
2018-01-07T21:25:19.567Z,81.37
2018-01-07T21:27:47.939Z,81.64
2018-01-07T21:30:16.847Z,81.80
2018-01-07T21:32:45.412Z,81.70
2018-01-07T21:35:14.352Z,81.72
2018-01-07T21:37:43.458Z,81.85
2018-01-07T21:40:12.711Z,81.82
2018-01-07T21:42:42.438Z,81.97
2018-01-07T21:45:11.551Z,82.03
2018-01-07T21:47:40.270Z,82.15
2018-01-07T21:50:21.347Z,82.20
2018-01-07T21:52:50.906Z,82.19
2018-01-07T21:55:19.406Z,82.10
2018-01-07T21:57:48.050Z,82.26
2018-01-07T22:00:45.894Z,82.39
2018-01-07T22:03:31.947Z,82.51
2018-01-07T22:06:13.106Z,82.44
2018-01-07T22:08:41.999Z,82.40
2018-01-07T22:11:16.434Z,82.38
2018-01-07T22:13:45.437Z,82.64
2018-01-07T22:16:13.823Z,82.60
2018-01-07T22:18:42.707Z,82.71
2018-01-07T22:21:12.036Z,82.58
2018-01-07T22:23:40.887Z,82.63
2018-01-07T22:26:09.894Z,82.65
2018-01-07T22:28:38.984Z,82.68
2018-01-07T22:31:08.175Z,82.66
2018-01-07T22:33:38.223Z,82.54
2018-01-07T22:36:06.869Z,82.49
2018-01-07T22:38:35.416Z,82.24
2018-01-07T22:41:04.568Z,82.31
2018-01-07T22:43:32.931Z,82.34
2018-01-07T22:46:01.410Z,82.79
2018-01-07T22:48:30.239Z,82.28
2018-01-07T22:50:59.287Z,82.39
2018-01-07T22:53:27.858Z,82.62
2018-01-07T22:55:58.131Z,82.83
2018-01-07T22:58:27.572Z,82.62
2018-01-07T23:00:56.854Z,82.35
2018-01-07T23:03:27.898Z,82.57
2018-01-07T23:05:57.208Z,82.42
2018-01-07T23:08:25.723Z,82.52
2018-01-07T23:10:54.483Z,82.58
2018-01-07T23:13:24.539Z,82.45
2018-01-07T23:15:52.951Z,82.46
2018-01-07T23:18:21.754Z,82.16
2018-01-07T23:20:50.846Z,82.33
2018-01-07T23:23:19.241Z,82.46
2018-01-07T23:25:48.273Z,82.44
2018-01-07T23:28:17.032Z,82.62
2018-01-07T23:30:45.400Z,82.40
2018-01-07T23:33:14.041Z,82.45
2018-01-07T23:35:43.142Z,82.31
2018-01-07T23:38:12.245Z,82.36
2018-01-07T23:40:40.617Z,82.43
2018-01-07T23:43:09.478Z,82.53
2018-01-07T23:45:38.568Z,82.39
2018-01-07T23:48:07.686Z,82.32
2018-01-07T23:50:36.734Z,82.57
2018-01-07T23:53:05.767Z,82.67
2018-01-07T23:55:34.082Z,82.58
2018-01-07T23:58:02.403Z,82.16
